CST,Max TemperatureF,Mean TemperatureF,Min TemperatureF,Max Dew PointF,MeanDew PointF,Min DewpointF,Max Humidity, Mean Humidity, Min Humidity, Max Sea Level PressureIn, Mean Sea Level PressureIn, Min Sea Level PressureIn, Max VisibilityMiles, Mean VisibilityMiles, Min VisibilityMiles, Max Wind SpeedMPH, Mean Wind SpeedMPH, Max Gust SpeedMPH,PrecipitationIn, CloudCover, Events, WindDirDegrees
2013-1-1,14,6,-2,5,0,-8,85,72,57,30.24,30.19,30.13,,,,8,6,,0.00,1,,296
2013-1-2,23,16,8,19,9,1,86,74,67,30.13,30.07,30.01,10,10,10,12,7,,0.00,5,,184
2013-1-3,26,17,8,23,14,3,93,80,73,30.28,30.18,30.06,10,9,2,16,10,18,0.00,5,,262
2013-1-4,30,19,8,19,14,3,93,78,64,30.21,30.16,30.11,10,10,10,22,11,28,0.00,0,,228
2013-1-5,33,24,15,32,21,12,93,86,74,30.18,30.04,29.90,10,8,2,20,9,28,0.00,3,,192
2013-1-6,26,20,14,19,14,9,86,79,68,30.27,30.13,29.91,10,10,10,15,11,23,0.00,3,,261
2013-1-7,35,24,12,27,19,9,86,78,69,30.24,30.10,30.03,10,10,10,22,10,25,0.00,0,,185
2013-1-8,37,30,23,30,26,19,93,83,75,30.06,30.00,29.92,10,10,5,21,9,23,0.00,1,,164
2013-1-9,37,32,26,30,26,21,87,79,65,30.45,30.26,29.96,10,10,10,24,14,33,0.00,0,,245
2013-1-10,35,29,23,34,26,19,100,84,69,30.46,30.19,29.75,10,8,2,21,10,29,0.12,3,,103
2013-1-11,46,40,33,43,37,32,100,94,81,29.80,29.65,29.57,10,2,0,21,10,22,0.01,6,,151
2013-1-12,46,34,21,41,23,14,93,76,68,30.03,29.87,29.58,10,10,10,33,17,39,0.00,5,,254
2013-1-13,21,16,10,12,6,3,79,70,62,30.24,30.08,29.92,10,10,10,21,12,25,0.00,5,,287
2013-1-14,26,17,8,12,8,3,85,71,51,30.42,30.37,30.24,10,10,10,10,6,,0.00,0,,240
2013-1-15,30,21,12,16,12,9,86,69,47,30.39,30.27,30.05,10,10,10,15,7,18,0.00,0,,185
2013-1-16,35,26,17,32,22,10,93,77,60,30.09,29.92,29.80,10,10,4,21,11,25,0.00,5,,236
2013-1-17,30,24,17,23,13,5,86,64,43,30.38,30.30,30.09,10,10,10,14,9,18,0.00,0,,291
2013-1-18,44,32,21,32,26,16,87,75,57,30.37,30.05,29.84,10,10,10,32,11,39,0.00,2,,188
2013-1-19,46,30,14,32,26,3,93,74,51,30.06,29.83,29.72,10,10,10,36,13,50,0.00,3,,240
2013-1-20,17,12,8,3,1,0,73,63,49,30.33,30.24,30.07,10,10,7,21,13,34,0.00,3,,283
2013-1-21,10,5,0,3,-7,-11,73,61,51,30.28,30.22,30.16,10,10,7,24,15,29,0.00,1,,283
2013-1-22,10,3,-4,-2,-7,-11,78,62,48,30.36,30.31,30.27,10,10,10,14,8,18,0.00,2,,276
2013-1-23,21,13,5,14,5,-6,86,69,53,30.43,30.21,30.08,10,8,1,23,10,30,0.00,7,,250
2013-1-24,19,10,1,9,-2,-9,68,61,53,30.62,30.48,30.26,10,10,10,13,9,20,0.00,1,,70
2013-1-25,30,22,14,18,11,5,80,65,51,30.25,30.07,29.94,10,10,7,23,12,31,0.00,4,,245
2013-1-26,26,16,6,14,7,1,79,60,43,30.37,30.30,30.22,10,10,10,12,5,,0.00,3,,140
2013-1-27,33,30,26,32,24,14,100,79,59,30.27,30.05,29.80,10,6,0,18,10,24,0.04,6,,135
2013-1-28,42,38,33,36,34,32,100,91,70,29.93,29.84,29.69,10,5,0,18,7,22,0.14,6,,129
2013-1-29,53,43,33,50,40,32,100,92,87,29.73,29.56,29.48,10,4,0,16,10,24,0.56,8,,328
2013-1-30,33,24,15,32,23,9,100,86,73,29.67,29.47,29.35,10,5,0,24,16,29,0.04,8,,324
2013-1-31,15,8,-2,10,0,-9,85,73,66,30.19,29.91,29.68,10,9,5,25,16,31,0.00,5,,275